Yeoman, Indiana
Current Conditions -  °F | °C
As of 7:15 PM on Thursday 18 Dec 2014 (Local Time) from KMCX Reporting Station
Overcast Overcast  
Wind Chill: 26°   Ceiling: 2100
Heat Index: 26°   Visibility: 10mi
Dew Point: 21°   Wind: 3mph
Humidity: 84%   Direction: 310°NW
Pressure: 30.24"   Gusts: NA
Location:  40.67°N, 86.72°W
Report Text: KMCX 190015Z AUTO 31003KT 10SM OVC021 M04/M06 A3024 RMK AO2 T10361060
Loading
Personal Weather Stations






























Interactive Weather Map New forecast layout! Learn more

10-Day Weather Forecast

Advertisements
Track Severe Weather on mobile